Rio Pardo, Brazil
Current Conditions -  °F | °C
As of 3:00 PM on Thursday 18 Dec 2014 (Local Time) from SBPA Reporting Station
Scattered Clouds Scattered Clouds  
Wind Chill: 84°   Ceiling: Unl
Heat Index: 84°   Visibility: 6mi
Dew Point: 55°   Wind: 6mph
Humidity: 37%   Direction: 220°SW
Pressure: 29.83"   Gusts: NA
Location:  29.99°S, 52.38°W
Report Text: SBPA 181700Z 22005KT 160V260 9999 SCT030 29/13 Q1010
Loading
Personal Weather Stations






























Interactive Weather Map New forecast layout! Learn more

10-Day Weather Forecast

Advertisements
Track Severe Weather on mobile